Time;durP1;ratioP1;P1;durP2;ratioP2;P2;SDS_P1;SDS_P2;PMS_P1;PMS_P2;Temp;Humidity;BMP_temperature;BMP_pressure;BME280_temperature;BME280_humidity;BME280_pressure;Samples;Min_cycle;Max_cycle;Signal;HPM_P1;HPM_P2
2022/01/30 00:01:48;;;;;;;29.80;4.63;;;6.80;99.90;;;;;;5094947;28;20048;-90
2022/01/30 00:04:14;;;;;;;27.42;4.25;;;6.80;99.90;;;;;;5077391;28;20044;-90
2022/01/30 00:06:40;;;;;;;27.52;4.25;;;6.60;99.90;;;;;;5095514;28;20080;-90
2022/01/30 00:09:09;;;;;;;25.77;4.22;;;6.60;99.90;;;;;;5076813;28;20039;-87
2022/01/30 00:11:37;;;;;;;26.27;4.28;;;6.60;99.90;;;;;;5061187;28;20392;-89
2022/01/30 00:14:05;;;;;;;24.67;4.10;;;6.50;99.90;;;;;;5094778;28;20131;-89
2022/01/30 00:16:34;;;;;;;36.30;5.25;;;6.50;99.90;;;;;;5095147;28;20040;-90
2022/01/30 00:19:52;;;;;;;29.75;4.50;;;6.50;99.90;;;;;;5094629;28;20132;-89
2022/01/30 00:21:51;;;;;;;26.83;4.95;;;6.50;99.90;;;;;;5084062;28;20058;-89
2022/01/30 00:24:27;;;;;;;27.63;5.10;;;6.50;99.90;;;;;;5095106;28;20087;-89
2022/01/30 00:26:53;;;;;;;24.05;4.13;;;6.60;99.90;;;;;;5094517;28;20044;-88
2022/01/30 00:29:18;;;;;;;20.58;4.03;;;6.60;99.90;;;;;;5094544;28;20090;-89
2022/01/30 00:31:44;;;;;;;29.63;5.03;;;6.70;99.90;;;;;;5094631;28;20048;-89
2022/01/30 00:34:10;;;;;;;24.80;5.00;;;6.70;99.90;;;;;;5094193;28;20106;-89
2022/01/30 00:36:35;;;;;;;23.88;4.07;;;6.70;99.90;;;;;;5093633;28;20429;-89
2022/01/30 00:39:01;;;;;;;23.45;4.03;;;6.80;99.90;;;;;;5093118;28;20460;-88
2022/01/30 00:41:27;;;;;;;30.85;5.35;;;6.80;99.90;;;;;;5075816;28;20050;-87
2022/01/30 00:43:52;;;;;;;24.33;4.40;;;6.80;99.90;;;;;;5092634;28;20108;-89
2022/01/30 00:46:18;;;;;;;20.98;4.05;;;6.70;99.90;;;;;;5076107;28;20059;-88
2022/01/30 00:48:44;;;;;;;15.70;3.10;;;6.60;99.90;;;;;;5075471;28;20055;-88
2022/01/30 00:51:09;;;;;;;22.08;3.90;;;6.60;99.90;;;;;;5092430;28;20052;-88
2022/01/30 00:53:35;;;;;;;17.95;3.35;;;6.40;99.90;;;;;;5075573;28;20138;-89
2022/01/30 00:56:01;;;;;;;18.25;3.30;;;6.30;99.90;;;;;;5075742;28;20040;-87
2022/01/30 00:58:26;;;;;;;18.25;3.15;;;6.10;99.90;;;;;;5059615;28;20197;-89
2022/01/30 01:00:52;;;;;;;17.40;2.92;;;6.00;99.90;;;;;;5076290;28;20044;-89
2022/01/30 01:03:18;;;;;;;19.45;3.60;;;5.90;99.90;;;;;;5076038;28;20075;-89
2022/01/30 01:05:44;;;;;;;24.10;4.15;;;5.80;99.90;;;;;;5093706;28;20051;-88
2022/01/30 01:20:49;;;;;;;17.27;3.13;;;5.70;99.90;;;;;;4979692;28;20050;-89
2022/01/30 01:25:03;;;;;;;28.25;4.90;;;5.50;99.90;;;;;;5092738;28;20503;-89
2022/01/30 01:27:29;;;;;;;25.77;4.50;;;5.40;99.90;;;;;;5074555;28;20052;-88
2022/01/30 01:29:55;;;;;;;25.98;5.07;;;5.40;99.90;;;;;;5074901;28;20048;-88
2022/01/30 01:32:20;;;;;;;36.70;5.40;;;5.50;99.90;;;;;;5093088;28;20087;-88
2022/01/30 01:34:46;;;;;;;28.90;5.53;;;5.50;99.90;;;;;;5093244;28;20071;-89
2022/01/30 01:37:12;;;;;;;25.60;5.90;;;5.50;99.90;;;;;;5074190;28;20063;-89
2022/01/30 01:39:38;;;;;;;28.90;4.55;;;5.50;99.90;;;;;;5092344;28;20043;-88
2022/01/30 01:42:04;;;;;;;27.30;5.05;;;5.70;99.90;;;;;;5092097;28;20127;-88
2022/01/30 01:44:38;;;;;;;32.55;5.65;;;5.80;99.90;;;;;;5074544;28;20048;-89
2022/01/30 01:47:05;;;;;;;28.90;4.80;;;5.80;99.90;;;;;;5075094;28;20051;-88
2022/01/30 01:49:32;;;;;;;29.52;4.00;;;5.90;99.90;;;;;;5074745;28;20399;-89
2022/01/30 01:54:50;;;;;;;28.80;4.53;;;6.10;99.90;;;;;;5092680;28;20052;-88
2022/01/30 01:57:16;;;;;;;27.05;4.80;;;6.10;99.90;;;;;;5075592;28;20051;-88
2022/01/30 01:59:41;;;;;;;29.55;4.18;;;6.10;99.90;;;;;;5074256;28;20481;-88
2022/01/30 02:02:07;;;;;;;27.23;4.55;;;6.20;99.90;;;;;;5092371;28;20092;-89
2022/01/30 02:04:33;;;;;;;33.92;5.55;;;6.20;99.90;;;;;;5092609;28;20048;-88
2022/01/30 02:07:24;;;;;;;30.40;4.60;;;6.20;99.90;;;;;;5073984;28;20040;-89
2022/01/30 02:09:47;;;;;;;31.70;4.72;;;6.20;99.90;;;;;;5077558;28;20063;-88
2022/01/30 02:12:20;;;;;;;30.25;5.18;;;6.20;99.90;;;;;;5091715;28;20048;-89
2022/01/30 02:15:07;;;;;;;24.65;4.78;;;6.10;99.90;;;;;;5092180;28;20052;-89
2022/01/30 02:25:43;;;;;;;30.10;5.03;;;6.20;99.90;;;;;;5076790;28;20462;-88
2022/01/30 02:28:12;;;;;;;29.95;6.20;;;6.20;99.90;;;;;;5075543;28;20122;-88
2022/01/30 02:30:42;;;;;;;34.38;6.05;;;6.30;99.90;;;;;;5092776;28;20051;-90
2022/01/30 02:33:07;;;;;;;32.88;6.05;;;6.40;99.90;;;;;;5092122;28;20060;-87
2022/01/30 02:35:33;;;;;;;29.27;5.85;;;6.40;99.90;;;;;;5074809;28;20062;-89
2022/01/30 02:38:00;;;;;;;37.28;5.93;;;6.50;99.90;;;;;;5092981;28;20036;-89
2022/01/30 02:40:26;;;;;;;33.50;6.22;;;6.50;99.90;;;;;;5074368;28;20078;-89
2022/01/30 02:42:54;;;;;;;35.47;5.80;;;6.50;99.90;;;;;;5092725;28;20055;-89
2022/01/30 02:45:22;;;;;;;31.65;5.90;;;6.50;99.90;;;;;;5074542;28;20059;-88
2022/01/30 02:48:11;;;;;;;21.80;5.07;;;6.60;99.90;;;;;;5092604;28;20123;-88
2022/01/30 02:50:50;;;;;;;21.75;3.95;;;6.60;99.90;;;;;;5092579;28;20048;-88
2022/01/30 02:53:15;;;;;;;19.33;3.88;;;6.50;99.90;;;;;;5092129;28;20048;-88
2022/01/30 02:55:41;;;;;;;27.45;4.32;;;6.30;99.90;;;;;;5092527;28;20044;-89
2022/01/30 02:58:07;;;;;;;19.55;4.07;;;6.10;99.90;;;;;;5092407;28;20131;-89
2022/01/30 03:00:32;;;;;;;23.77;4.35;;;6.00;99.90;;;;;;5074174;28;20066;-89
2022/01/30 03:02:58;;;;;;;32.65;4.55;;;5.90;99.90;;;;;;5092432;28;20389;-89
2022/01/30 03:05:24;;;;;;;29.80;5.88;;;5.90;99.90;;;;;;5074826;28;20488;-88
2022/01/30 03:07:49;;;;;;;29.80;5.82;;;5.90;99.90;;;;;;5096424;28;20044;-88
2022/01/30 03:10:15;;;;;;;32.88;5.53;;;6.00;99.90;;;;;;5096006;28;20480;-88
2022/01/30 03:12:41;;;;;;;34.30;5.25;;;5.90;99.90;;;;;;5078393;28;20048;-88
2022/01/30 03:15:07;;;;;;;30.02;5.13;;;6.00;99.90;;;;;;5096332;28;20502;-88
2022/01/30 03:17:33;;;;;;;29.10;5.35;;;6.00;99.90;;;;;;5077841;28;20484;-88
2022/01/30 03:19:59;;;;;;;32.60;5.25;;;6.00;99.90;;;;;;5096226;28;20086;-89
2022/01/30 03:22:25;;;;;;;32.13;5.75;;;6.00;99.90;;;;;;5095671;28;20468;-89
2022/01/30 03:24:51;;;;;;;31.13;5.20;;;6.10;99.90;;;;;;5078255;28;20083;-89
2022/01/30 03:27:16;;;;;;;33.97;5.45;;;6.00;99.90;;;;;;5094862;28;20094;-88
2022/01/30 03:29:49;;;;;;;37.38;6.53;;;6.00;99.90;;;;;;5095757;28;20052;-88
2022/01/30 03:32:15;;;;;;;36.85;6.15;;;6.00;99.90;;;;;;5078269;28;20146;-85
2022/01/30 03:34:41;;;;;;;33.45;6.05;;;6.00;99.90;;;;;;5095961;28;20492;-88
2022/01/30 03:37:07;;;;;;;36.45;5.68;;;6.10;99.90;;;;;;5094674;28;20071;-89
2022/01/30 03:39:32;;;;;;;34.58;5.35;;;6.10;99.90;;;;;;5094195;28;20044;-89
2022/01/30 03:41:58;;;;;;;39.33;5.80;;;6.20;99.90;;;;;;5095003;28;20047;-88
2022/01/30 03:44:24;;;;;;;29.13;5.35;;;6.20;99.90;;;;;;5094424;28;20093;-89
2022/01/30 03:46:49;;;;;;;37.17;6.25;;;6.10;99.90;;;;;;5094568;28;20043;-88
2022/01/30 03:49:15;;;;;;;34.47;6.53;;;6.20;99.90;;;;;;5094434;28;20048;-89
2022/01/30 03:51:40;;;;;;;32.42;6.47;;;6.20;99.90;;;;;;5094960;28;20040;-88
2022/01/30 03:54:06;;;;;;;41.88;6.22;;;6.20;99.90;;;;;;5095549;28;20040;-88
2022/01/30 03:56:32;;;;;;;35.80;6.00;;;6.30;99.90;;;;;;5095271;28;20392;-88
2022/01/30 03:58:57;;;;;;;38.47;6.80;;;6.20;99.90;;;;;;5094285;28;20047;-88
2022/01/30 04:01:23;;;;;;;37.63;6.32;;;6.30;99.90;;;;;;5094240;28;20408;-89
2022/01/30 04:03:48;;;;;;;32.17;6.50;;;6.30;99.90;;;;;;5094381;28;20083;-88
2022/01/30 04:06:14;;;;;;;37.92;6.85;;;6.30;99.90;;;;;;5094106;28;20088;-89
2022/01/30 04:08:40;;;;;;;36.20;7.40;;;6.30;99.90;;;;;;5076208;28;20456;-89
2022/01/30 04:11:06;;;;;;;48.72;8.48;;;6.30;99.90;;;;;;5076331;28;20372;-89
2022/01/30 04:13:31;;;;;;;37.97;6.65;;;6.40;99.90;;;;;;5093550;28;20105;-88
2022/01/30 04:15:57;;;;;;;40.50;6.10;;;6.40;99.90;;;;;;5093969;28;20048;-89
2022/01/30 04:18:23;;;;;;;38.78;6.85;;;6.40;99.90;;;;;;5093759;28;20074;-86
2022/01/30 04:20:50;;;;;;;42.20;6.72;;;6.40;99.90;;;;;;5095163;28;20067;-88
2022/01/30 04:23:16;;;;;;;43.50;7.03;;;6.40;99.90;;;;;;5077284;28;20078;-89
2022/01/30 04:25:42;;;;;;;43.85;7.10;;;6.40;99.90;;;;;;5094531;28;20044;-87
2022/01/30 04:28:08;;;;;;;40.88;7.13;;;6.40;99.90;;;;;;5060071;28;20104;-88
2022/01/30 04:30:34;;;;;;;38.85;6.70;;;6.40;99.90;;;;;;5094447;28;20055;-88
2022/01/30 04:33:00;;;;;;;36.30;7.20;;;6.30;99.90;;;;;;5094594;28;20044;-89
2022/01/30 04:35:29;;;;;;;36.67;6.63;;;6.30;99.90;;;;;;5094451;28;20055;-87
2022/01/30 05:09:18;;;;;;;52.67;8.15;;;5.80;99.90;;;;;;5077492;28;20055;-90
2022/01/30 05:11:44;;;;;;;56.30;8.45;;;5.80;99.90;;;;;;5075240;28;20036;-87
2022/01/30 05:14:10;;;;;;;50.95;7.43;;;5.80;99.90;;;;;;5059501;28;20463;-86
2022/01/30 05:16:38;;;;;;;41.30;6.40;;;5.80;99.90;;;;;;5042374;28;20044;-86
2022/01/30 05:19:04;;;;;;;38.03;6.38;;;5.80;99.90;;;;;;5059368;28;20043;-86
2022/01/30 05:21:30;;;;;;;37.75;5.93;;;5.80;99.90;;;;;;5059538;28;20044;-87
2022/01/30 05:23:55;;;;;;;40.45;7.05;;;5.70;99.90;;;;;;5093418;28;20079;-86
2022/01/30 05:26:22;;;;;;;33.70;6.50;;;5.60;99.90;;;;;;5075833;28;20491;-86
2022/01/30 05:28:47;;;;;;;39.47;6.97;;;5.60;99.90;;;;;;5074719;28;20108;-86
2022/01/30 05:31:13;;;;;;;44.90;7.65;;;5.60;99.90;;;;;;5093414;28;20119;-85
2022/01/30 05:33:39;;;;;;;47.22;7.88;;;5.60;99.90;;;;;;5058381;28;20533;-85
2022/01/30 05:36:06;;;;;;;49.28;8.30;;;5.50;99.90;;;;;;5093637;28;20060;-85
2022/01/30 05:38:32;;;;;;;42.72;8.18;;;5.50;99.90;;;;;;5075511;28;20052;-85
2022/01/30 05:40:57;;;;;;;47.65;7.43;;;5.50;99.90;;;;;;5093213;28;20460;-85
2022/01/30 05:43:27;;;;;;;48.80;7.22;;;5.40;99.90;;;;;;5093513;28;20098;-84
2022/01/30 05:45:59;;;;;;;46.72;7.43;;;5.50;99.90;;;;;;5093124;28;20127;-85
2022/01/30 05:48:25;;;;;;;48.92;7.35;;;5.50;99.90;;;;;;5059757;28;20044;-85
2022/01/30 05:50:51;;;;;;;46.00;8.23;;;5.50;99.90;;;;;;5092891;28;20506;-85
2022/01/30 05:53:17;;;;;;;50.58;7.70;;;5.40;99.90;;;;;;5093049;28;20114;-84
2022/01/30 05:55:42;;;;;;;53.95;8.60;;;5.40;99.90;;;;;;5074917;28;20044;-85
2022/01/30 05:58:09;;;;;;;42.10;8.55;;;5.40;99.90;;;;;;5075283;28;20091;-86
2022/01/30 06:00:35;;;;;;;41.80;7.70;;;5.30;99.90;;;;;;5075228;28;20052;-85
2022/01/30 06:03:00;;;;;;;44.65;7.65;;;5.40;99.90;;;;;;5092867;28;20075;-86
2022/01/30 06:05:26;;;;;;;43.75;7.25;;;5.50;99.90;;;;;;5093165;28;20483;-85
2022/01/30 06:07:57;;;;;;;47.03;8.30;;;5.50;99.90;;;;;;5057874;28;20090;-86
2022/01/30 06:10:24;;;;;;;39.50;7.43;;;5.50;99.90;;;;;;5076005;28;20044;-86
2022/01/30 06:12:50;;;;;;;45.88;7.20;;;5.50;99.90;;;;;;5058006;28;20052;-86
2022/01/30 06:15:16;;;;;;;49.40;8.07;;;5.60;99.90;;;;;;5074923;28;20044;-86
2022/01/30 06:17:42;;;;;;;47.08;7.90;;;5.60;99.90;;;;;;5074487;28;20499;-85
2022/01/30 06:20:08;;;;;;;49.05;8.23;;;5.60;99.90;;;;;;5057782;28;20488;-86
2022/01/30 06:22:34;;;;;;;39.85;7.40;;;5.70;99.90;;;;;;5092936;28;20070;-86
2022/01/30 06:25:00;;;;;;;42.85;7.65;;;5.80;99.90;;;;;;5092262;28;20044;-86
2022/01/30 06:27:26;;;;;;;61.03;9.50;;;5.70;99.90;;;;;;5074813;28;20043;-86
2022/01/30 06:29:51;;;;;;;51.70;8.48;;;5.80;99.90;;;;;;5074299;28;20050;-86
2022/01/30 06:32:17;;;;;;;39.53;7.05;;;5.80;99.90;;;;;;5074701;28;20052;-86
2022/01/30 06:34:43;;;;;;;48.97;7.60;;;5.80;99.90;;;;;;5092296;28;20056;-86
2022/01/30 06:37:08;;;;;;;44.33;8.00;;;5.80;99.90;;;;;;5074676;28;20044;-87
2022/01/30 06:39:34;;;;;;;46.45;8.15;;;5.90;99.90;;;;;;5074440;28;20050;-86
2022/01/30 06:42:00;;;;;;;42.47;7.95;;;5.90;99.90;;;;;;5073868;28;20048;-86
2022/01/30 06:44:25;;;;;;;43.28;7.75;;;5.90;99.90;;;;;;5092652;28;20056;-86
2022/01/30 06:46:51;;;;;;;39.08;7.07;;;6.00;99.90;;;;;;5092108;28;20041;-87
2022/01/30 06:49:16;;;;;;;38.10;7.63;;;6.10;99.90;;;;;;5092569;28;20058;-86
2022/01/30 06:51:42;;;;;;;40.42;7.10;;;6.00;99.90;;;;;;5057771;28;20048;-86
2022/01/30 06:54:08;;;;;;;35.17;7.13;;;6.10;99.90;;;;;;5074193;28;20051;-87
2022/01/30 06:56:33;;;;;;;43.45;7.38;;;6.10;99.90;;;;;;5092439;28;20047;-85
2022/01/30 06:58:59;;;;;;;44.97;7.60;;;5.90;99.90;;;;;;5074203;28;20059;-87
2022/01/30 07:01:25;;;;;;;48.75;6.90;;;6.00;99.90;;;;;;5057986;28;20048;-86
2022/01/30 07:03:52;;;;;;;42.03;7.15;;;5.90;99.90;;;;;;5074065;28;20054;-88
2022/01/30 07:06:18;;;;;;;49.65;7.95;;;6.00;99.90;;;;;;5074640;28;20082;-86
2022/01/30 07:08:43;;;;;;;38.35;6.97;;;6.00;99.90;;;;;;5074567;28;20136;-88
2022/01/30 07:11:09;;;;;;;40.10;7.35;;;6.00;99.90;;;;;;5040847;28;20055;-85
2022/01/30 07:13:35;;;;;;;46.35;7.00;;;6.10;99.90;;;;;;5057922;28;20158;-86
2022/01/30 07:16:00;;;;;;;45.22;8.13;;;6.10;99.90;;;;;;5092035;28;20149;-86
2022/01/30 07:18:26;;;;;;;44.33;8.07;;;6.20;99.90;;;;;;5074270;28;20365;-86
2022/01/30 07:20:51;;;;;;;44.20;7.80;;;6.20;99.90;;;;;;5091785;28;20429;-86
2022/01/30 07:23:17;;;;;;;40.53;6.90;;;6.20;99.90;;;;;;5074188;28;20036;-86
2022/01/30 07:25:44;;;;;;;44.90;7.70;;;6.20;99.90;;;;;;5092139;28;20040;-86
2022/01/30 07:28:10;;;;;;;45.42;7.90;;;6.20;99.90;;;;;;5091719;28;20677;-86
2022/01/30 07:30:36;;;;;;;45.58;7.88;;;6.20;99.90;;;;;;5074518;28;20540;-86
2022/01/30 07:33:05;;;;;;;46.55;7.45;;;6.30;99.90;;;;;;5091620;28;20102;-86
2022/01/30 07:35:33;;;;;;;38.97;7.05;;;6.30;99.90;;;;;;5070848;28;20413;-85
2022/01/30 07:37:58;;;;;;;39.30;7.65;;;6.30;99.90;;;;;;5037722;28;20092;-86
2022/01/30 07:40:24;;;;;;;45.03;7.88;;;6.30;99.90;;;;;;5070778;28;20087;-85
2022/01/30 07:42:50;;;;;;;45.35;7.90;;;6.30;99.90;;;;;;5054106;28;20047;-86
2022/01/30 07:45:16;;;;;;;42.97;7.63;;;6.30;99.90;;;;;;5070251;28;20575;-86
2022/01/30 07:47:41;;;;;;;46.80;8.63;;;6.30;99.90;;;;;;5071834;28;20128;-85
2022/01/30 07:50:08;;;;;;;44.08;8.00;;;6.30;99.90;;;;;;5070278;28;20049;-86
2022/01/30 07:52:34;;;;;;;46.72;7.40;;;6.30;99.90;;;;;;5072453;28;20123;-86
2022/01/30 07:54:59;;;;;;;48.38;8.07;;;6.30;99.90;;;;;;5074659;28;20095;-84
2022/01/30 07:57:25;;;;;;;47.13;7.45;;;6.30;99.90;;;;;;5075298;28;20040;-86
2022/01/30 07:59:51;;;;;;;48.45;7.90;;;6.30;99.90;;;;;;5074070;28;20040;-87
2022/01/30 08:02:16;;;;;;;49.67;8.25;;;6.30;99.90;;;;;;5073832;28;20052;-86
2022/01/30 08:04:42;;;;;;;44.35;7.57;;;6.30;99.90;;;;;;5073933;28;20037;-86
2022/01/30 08:07:07;;;;;;;42.70;6.93;;;6.20;99.90;;;;;;5073644;28;20044;-87
2022/01/30 08:09:33;;;;;;;35.53;6.20;;;6.10;99.90;;;;;;5075227;28;20045;-86
2022/01/30 08:11:59;;;;;;;44.30;7.25;;;6.10;99.90;;;;;;5056731;28;20055;-86
2022/01/30 08:14:24;;;;;;;40.50;6.90;;;6.10;99.90;;;;;;5073700;28;20048;-86
2022/01/30 08:16:50;;;;;;;34.65;6.68;;;6.10;99.90;;;;;;5074886;28;20131;-87
2022/01/30 08:19:16;;;;;;;30.63;6.43;;;6.20;99.90;;;;;;5074390;28;20050;-86
2022/01/30 08:21:42;;;;;;;35.03;6.72;;;6.20;99.90;;;;;;5074930;28;20385;-86
2022/01/30 08:24:07;;;;;;;38.97;6.53;;;6.20;99.90;;;;;;5056744;28;20102;-89
2022/01/30 08:26:33;;;;;;;37.60;6.15;;;6.20;99.90;;;;;;5074816;28;20048;-89
2022/01/30 08:28:59;;;;;;;44.03;6.95;;;6.20;99.90;;;;;;5073229;28;20393;-87
2022/01/30 08:31:24;;;;;;;32.78;6.72;;;6.10;99.90;;;;;;5074727;28;20048;-89
2022/01/30 08:33:50;;;;;;;37.40;7.15;;;6.10;99.90;;;;;;5076283;28;20056;-88
2022/01/30 08:36:16;;;;;;;40.20;6.80;;;6.10;99.90;;;;;;5094344;28;20515;-89
2022/01/30 08:38:41;;;;;;;45.00;7.53;;;6.10;99.90;;;;;;5094696;28;20048;-87
2022/01/30 08:41:07;;;;;;;39.33;7.00;;;6.10;99.90;;;;;;5094284;28;20040;-89
2022/01/30 08:43:33;;;;;;;44.75;7.20;;;6.00;99.90;;;;;;5060332;28;20051;-88
2022/01/30 08:45:59;;;;;;;40.85;7.88;;;6.00;99.90;;;;;;5076714;28;20052;-88
2022/01/30 08:48:25;;;;;;;36.83;6.97;;;6.20;99.90;;;;;;5094066;28;20132;-87
2022/01/30 08:50:51;;;;;;;40.92;7.55;;;6.20;99.90;;;;;;5094604;28;20107;-86
2022/01/30 08:53:16;;;;;;;31.30;6.07;;;6.20;99.90;;;;;;5094110;28;20055;-86
2022/01/30 08:55:43;;;;;;;44.97;7.20;;;6.30;99.90;;;;;;5076296;28;20048;-86
2022/01/30 08:58:09;;;;;;;43.58;7.28;;;6.30;99.90;;;;;;5094139;28;20085;-90
2022/01/30 09:00:39;;;;;;;43.22;7.32;;;6.40;99.90;;;;;;5076618;28;20052;-89
2022/01/30 09:03:05;;;;;;;40.17;7.28;;;6.40;99.90;;;;;;5059254;28;20430;-87
2022/01/30 09:05:31;;;;;;;43.80;7.30;;;6.40;99.90;;;;;;5059655;28;20098;-90
2022/01/30 09:07:57;;;;;;;44.85;7.70;;;6.40;99.90;;;;;;5075886;28;20058;-91
2022/01/30 09:10:23;;;;;;;35.85;7.22;;;6.30;99.90;;;;;;5075108;28;20050;-89
2022/01/30 09:12:48;;;;;;;40.60;6.85;;;6.30;99.90;;;;;;5094355;28;20048;-92
2022/01/30 09:15:16;;;;;;;40.63;6.85;;;6.20;99.90;;;;;;5075380;28;20047;-93
2022/01/30 09:17:42;;;;;;;48.22;6.75;;;6.20;99.90;;;;;;5075117;28;20476;-89
2022/01/30 09:20:08;;;;;;;38.08;7.22;;;6.30;99.90;;;;;;5058380;28;20055;-89
2022/01/30 09:22:34;;;;;;;48.38;7.35;;;6.40;99.90;;;;;;5075375;28;20047;-90
2022/01/30 09:24:59;;;;;;;46.83;7.72;;;6.40;99.90;;;;;;5092783;28;20086;-91
2022/01/30 09:27:25;;;;;;;45.13;9.20;;;6.40;99.90;;;;;;5092796;28;20063;-90
2022/01/30 09:29:51;;;;;;;42.03;7.45;;;6.30;99.90;;;;;;5093520;28;20395;-89
2022/01/30 09:32:17;;;;;;;41.22;7.65;;;6.30;99.90;;;;;;5075667;28;20399;-89
2022/01/30 09:34:43;;;;;;;42.40;7.07;;;6.30;99.90;;;;;;5093208;28;20059;-90
2022/01/30 09:37:09;;;;;;;42.03;6.45;;;6.40;99.90;;;;;;5092808;28;20052;-88
2022/01/30 09:39:36;;;;;;;40.45;7.75;;;6.50;99.90;;;;;;5074900;28;20052;-92
2022/01/30 09:42:01;;;;;;;45.83;7.95;;;6.70;99.90;;;;;;5093029;28;20048;-91
2022/01/30 09:44:27;;;;;;;49.92;7.38;;;6.80;99.90;;;;;;5074278;28;20134;-91
2022/01/30 09:46:53;;;;;;;54.17;8.07;;;6.80;99.90;;;;;;5074358;28;20146;-90
2022/01/30 09:49:23;;;;;;;53.35;8.20;;;6.80;99.90;;;;;;5074500;28;20051;-91
2022/01/30 09:51:49;;;;;;;;;;;6.70;99.90;;;;;;5075563;28;20170;-90
2022/01/30 09:54:15;;;;;;;41.92;6.95;;;6.50;99.90;;;;;;5074440;28;20378;-90
2022/01/30 09:56:40;;;;;;;42.50;7.43;;;6.50;99.90;;;;;;5074937;28;20130;-91
2022/01/30 09:59:06;;;;;;;40.75;7.07;;;6.60;99.90;;;;;;5074503;28;20135;-91
2022/01/30 10:01:33;;;;;;;36.08;7.50;;;6.70;99.90;;;;;;5092087;28;20098;-90
2022/01/30 10:03:59;;;;;;;37.00;7.13;;;6.70;99.90;;;;;;5058174;28;20048;-92
2022/01/30 10:06:31;;;;;;;34.17;6.55;;;6.70;99.90;;;;;;5092770;28;20051;-90
2022/01/30 10:08:59;;;;;;;40.53;6.85;;;6.70;99.90;;;;;;5076200;28;20052;-91
2022/01/30 10:11:37;;;;;;;41.78;7.13;;;6.70;99.90;;;;;;5074924;28;20052;-93
2022/01/30 10:14:10;;;;;;;37.45;6.95;;;6.70;99.90;;;;;;5060453;28;20131;-93
2022/01/30 10:16:48;;;;;;;44.45;7.40;;;6.70;99.90;;;;;;5074521;28;20484;-93
2022/01/30 10:19:17;;;;;;;33.80;6.82;;;6.70;99.90;;;;;;5058299;28;20055;-92
2022/01/30 10:21:43;;;;;;;43.88;7.25;;;6.80;99.90;;;;;;5066161;28;20070;-91
2022/01/30 10:24:28;;;;;;;53.85;9.90;;;7.00;99.90;;;;;;5093057;28;20131;-93
2022/01/30 10:26:56;;;;;;;47.08;7.38;;;7.20;99.90;;;;;;5075288;28;20047;-94
2022/01/30 10:29:29;;;;;;;42.25;8.07;;;7.30;99.90;;;;;;5082241;28;20373;-93
2022/01/30 10:32:02;;;;;;;41.90;7.82;;;7.40;99.90;;;;;;5078416;28;20044;-95
2022/01/30 10:34:29;;;;;;;47.22;7.65;;;7.40;99.90;;;;;;5095865;28;20048;-92
2022/01/30 10:37:18;;;;;;;47.95;7.28;;;7.50;99.90;;;;;;5074694;28;20044;-91
2022/01/30 10:40:02;;;;;;;46.65;8.40;;;7.50;99.90;;;;;;5074610;28;20058;-91
2022/01/30 10:42:43;;;;;;;41.05;7.82;;;7.50;99.90;;;;;;5074813;28;20484;-92
2022/01/30 10:45:13;;;;;;;47.10;7.97;;;7.50;99.90;;;;;;5057785;28;20047;-92
2022/01/30 10:47:39;;;;;;;33.97;8.23;;;7.40;99.90;;;;;;5074058;28;20044;-91
2022/01/30 10:50:10;;;;;;;39.50;7.50;;;7.40;99.90;;;;;;5074708;28;20206;-91
2022/01/30 10:52:53;;;;;;;38.20;7.25;;;7.40;99.90;;;;;;5091407;28;20520;-89
2022/01/30 10:55:37;;;;;;;37.00;7.50;;;7.20;99.90;;;;;;5092041;28;20059;-92
2022/01/30 10:58:04;;;;;;;39.45;7.38;;;7.10;99.90;;;;;;5073741;28;20368;-90
2022/01/30 11:00:59;;;;;;;38.00;8.05;;;7.00;99.90;;;;;;5091591;28;20094;-91
2022/01/30 11:03:37;;;;;;;37.25;7.45;;;7.00;99.90;;;;;;5082143;28;20052;-91
2022/01/30 11:06:03;;;;;;;42.10;7.20;;;7.00;99.90;;;;;;5073837;28;20476;-93
2022/01/30 11:08:33;;;;;;;41.78;7.13;;;6.90;99.90;;;;;;5073056;28;20119;-91
2022/01/30 11:11:12;;;;;;;36.72;7.15;;;7.00;99.90;;;;;;5091515;28;20052;-90
2022/01/30 11:13:48;;;;;;;38.70;7.25;;;7.00;99.90;;;;;;5091500;28;20044;-91
2022/01/30 11:18:59;;;;;;;28.85;5.43;;;7.10;99.90;;;;;;5092016;28;20044;-90
2022/01/30 11:21:25;;;;;;;36.88;7.65;;;7.30;99.30;;;;;;5072824;28;20472;-86
2022/01/30 11:23:51;;;;;;;34.30;6.43;;;7.40;98.30;;;;;;5073508;28;20044;-91
2022/01/30 11:26:17;;;;;;;39.13;6.25;;;7.50;98.20;;;;;;5074475;28;20430;-89
2022/01/30 11:28:43;;;;;;;35.05;6.97;;;7.60;97.70;;;;;;5095526;28;20082;-89
2022/01/30 11:31:09;;;;;;;37.90;6.45;;;7.60;96.50;;;;;;5077364;28;20585;-91
2022/01/30 11:33:35;;;;;;;42.30;6.97;;;7.50;96.00;;;;;;5060261;28;20040;-91
2022/01/30 11:36:00;;;;;;;37.72;6.68;;;7.40;96.50;;;;;;5077061;28;20056;-91
2022/01/30 11:38:26;;;;;;;33.53;5.90;;;7.30;97.20;;;;;;5077246;28;20051;-87
2022/01/30 11:41:14;;;;;;;40.53;5.93;;;7.30;98.30;;;;;;5076464;28;20043;-91
2022/01/30 11:43:40;;;;;;;41.25;6.53;;;7.30;97.60;;;;;;5096733;28;20055;-91
2022/01/30 11:46:15;;;;;;;36.63;6.18;;;7.30;97.40;;;;;;5076999;28;20047;-92
2022/01/30 11:48:41;;;;;;;38.42;6.95;;;7.30;96.00;;;;;;5094585;28;20071;-94
2022/01/30 11:51:08;;;;;;;37.58;7.03;;;7.40;96.00;;;;;;5078518;28;20058;-92
2022/01/30 11:53:33;;;;;;;36.60;6.10;;;7.50;97.10;;;;;;5060419;28;20100;-94
2022/01/30 11:56:00;;;;;;;42.47;7.60;;;7.70;97.00;;;;;;5078548;28;20036;-93
2022/01/30 11:58:57;;;;;;;33.75;6.68;;;7.80;97.30;;;;;;5094733;28;20083;-95
2022/01/30 12:01:26;;;;;;;31.52;5.97;;;8.00;96.00;;;;;;5095056;28;20412;-95
2022/01/30 12:04:02;;;;;;;37.50;6.40;;;8.00;96.30;;;;;;5094481;28;20052;-91
2022/01/30 12:06:32;;;;;;;33.40;6.18;;;8.10;95.60;;;;;;5077992;28;20109;-93
2022/01/30 12:09:27;;;;;;;31.55;5.82;;;8.00;96.70;;;;;;5094918;28;20436;-92
2022/01/30 12:11:54;;;;;;;42.78;7.20;;;7.90;97.10;;;;;;5078548;28;20052;-93
2022/01/30 12:14:20;;;;;;;36.08;6.40;;;7.80;97.40;;;;;;5077220;28;20056;-92
2022/01/30 12:16:51;;;;;;;42.75;7.47;;;7.80;97.80;;;;;;5096755;23;20515;-94
2022/01/30 12:19:39;;;;;;;36.35;7.22;;;7.70;97.30;;;;;;5017018;28;20461;-92
2022/01/30 12:22:16;;;;;;;40.47;6.05;;;7.80;97.40;;;;;;5003517;28;20433;-93
2022/01/30 12:24:49;;;;;;;34.45;6.53;;;7.80;95.90;;;;;;5034003;28;20056;-91
2022/01/30 12:27:15;;;;;;;40.33;5.88;;;7.80;97.60;;;;;;5015866;28;20088;-92
2022/01/30 12:29:43;;;;;;;38.72;7.07;;;7.80;97.40;;;;;;4999413;28;20442;-92
2022/01/30 12:32:21;;;;;;;36.63;6.65;;;7.80;96.80;;;;;;5015837;28;20543;-92
2022/01/30 12:34:56;;;;;;;42.90;6.70;;;7.90;98.40;;;;;;5033586;28;20057;-91
2022/01/30 12:37:32;;;;;;;40.30;6.57;;;8.00;99.20;;;;;;5033548;28;20052;-93
2022/01/30 12:39:59;;;;;;;36.53;6.07;;;8.00;99.50;;;;;;4998980;28;20146;-91
2022/01/30 12:42:30;;;;;;;33.20;5.82;;;8.00;99.00;;;;;;5016905;28;20045;-92
2022/01/30 12:44:59;;;;;;;34.85;7.22;;;8.10;99.90;;;;;;5000117;28;20100;-91
2022/01/30 12:47:25;;;;;;;45.90;7.38;;;8.20;99.00;;;;;;5015886;28;20088;-93
2022/01/30 12:49:56;;;;;;;39.50;6.38;;;8.20;97.90;;;;;;5033631;28;20049;-94
2022/01/30 12:54:58;;;;;;;38.97;6.68;;;8.10;97.20;;;;;;5015165;28;20053;-92
2022/01/30 12:57:24;;;;;;;42.17;6.97;;;7.90;96.10;;;;;;4998928;28;20073;-88
2022/01/30 12:59:53;;;;;;;36.47;5.88;;;7.80;96.80;;;;;;5014361;28;20057;-91
2022/01/30 13:02:19;;;;;;;38.92;5.90;;;7.60;95.90;;;;;;5033182;28;20057;-90
2022/01/30 13:04:45;;;;;;;32.13;6.22;;;7.60;97.20;;;;;;5031290;28;20056;-90
2022/01/30 13:07:14;;;;;;;46.28;7.05;;;7.50;96.90;;;;;;5014904;28;20474;-90
2022/01/30 13:09:39;;;;;;;36.97;6.40;;;7.50;97.50;;;;;;4999760;28;20095;-90
2022/01/30 13:12:15;;;;;;;39.08;5.93;;;7.40;98.70;;;;;;5033049;28;20049;-90
2022/01/30 13:14:44;;;;;;;31.48;5.82;;;7.50;98.50;;;;;;5015866;28;20049;-89
2022/01/30 13:17:10;;;;;;;31.30;5.18;;;7.50;99.20;;;;;;5037108;28;20094;-89
2022/01/30 13:19:42;;;;;;;26.77;5.35;;;7.50;96.70;;;;;;5073377;28;20052;-89
2022/01/30 13:22:09;;;;;;;37.35;6.40;;;7.60;95.60;;;;;;5056450;28;20048;-87
2022/01/30 13:24:36;;;;;;;28.83;6.15;;;7.60;94.30;;;;;;5073754;28;20084;-88
2022/01/30 13:27:06;;;;;;;29.95;5.63;;;7.60;94.50;;;;;;5081818;28;20084;-89
2022/01/30 13:29:34;;;;;;;28.87;4.67;;;7.70;94.90;;;;;;5028089;28;20052;-94
2022/01/30 13:32:00;;;;;;;25.08;4.68;;;7.70;94.70;;;;;;5086409;28;20068;-94
2022/01/30 13:34:30;;;;;;;27.05;5.00;;;7.80;93.30;;;;;;5050090;28;20051;-95
2022/01/30 13:37:06;;;;;;;25.60;4.70;;;7.80;91.60;;;;;;5070710;28;20044;-95
2022/01/30 13:40:04;;;;;;;33.00;5.38;;;7.70;88.50;;;;;;5029235;28;20044;-94
2022/01/30 13:48:09;;;;;;;37.80;5.93;;;7.50;91.30;;;;;;5018928;28;20048;-95
2022/01/30 13:50:37;;;;;;;31.90;5.57;;;7.50;91.60;;;;;;5073360;28;20045;-94
2022/01/30 13:53:10;;;;;;;33.53;5.55;;;7.50;93.30;;;;;;5072549;28;20044;-90
2022/01/30 13:55:57;;;;;;;34.10;5.95;;;7.50;94.50;;;;;;5055133;28;20451;-92
2022/01/30 13:58:30;;;;;;;37.92;5.95;;;7.50;93.80;;;;;;5055035;28;20389;-92
2022/01/30 14:00:56;;;;;;;35.67;6.60;;;7.50;94.10;;;;;;5022752;28;20091;-92